Time,TemperatureF,DewpointF,PressureIn,WindDirection,WindDirectionDegrees,WindSpeedMPH,WindSpeedGustMPH,Humidity,HourlyPrecipIn,Conditions,Clouds,dailyrainin,SolarRadiationWatts/m^2,SoftwareType,DateUTC
2013-07-20 00:00:00,77.1,71.2,29.85,WNW,293,1.0,-999.0,82,0.00,,,0.02,0,Wunderground v.1.15,2013-07-20 04:00:00,
2013-07-20 00:05:00,77.0,71.1,29.84,SE,135,2.0,-999.0,82,0.00,,,0.02,0,Wunderground v.1.15,2013-07-20 04:05:00,
2013-07-20 00:10:00,77.1,71.2,29.85,ESE,113,1.0,-999.0,82,0.00,,,0.02,0,Wunderground v.1.15,2013-07-20 04:10:00,
2013-07-20 00:15:00,77.0,71.1,29.84,ESE,113,1.0,-999.0,82,0.00,,,0.02,0,Wunderground v.1.15,2013-07-20 04:15:00,
2013-07-20 00:20:00,77.0,71.1,29.84,SE,135,4.0,-999.0,82,0.00,,,0.02,0,Wunderground v.1.15,2013-07-20 04:20:00,
2013-07-20 00:25:00,76.9,71.0,29.84,WNW,293,1.0,-999.0,82,0.00,,,0.02,0,Wunderground v.1.15,2013-07-20 04:25:00,
2013-07-20 00:30:00,76.8,71.2,29.84,SE,135,1.0,-999.0,83,0.00,,,0.02,0,Wunderground v.1.15,2013-07-20 04:30:00,
2013-07-20 00:35:00,76.7,71.1,29.84,West,270,1.0,-999.0,83,0.00,,,0.02,0,Wunderground v.1.15,2013-07-20 04:35:00,
2013-07-20 00:40:00,76.5,70.9,29.84,West,270,0.0,-999.0,83,0.00,,,0.02,0,Wunderground v.1.15,2013-07-20 04:40:00,
2013-07-20 00:45:00,76.4,71.2,29.84,SE,135,1.0,-999.0,84,0.00,,,0.02,0,Wunderground v.1.15,2013-07-20 04:45:00,
2013-07-20 00:50:00,76.3,71.1,29.84,SE,135,0.0,-999.0,84,0.00,,,0.02,0,Wunderground v.1.15,2013-07-20 04:50:00,
2013-07-20 00:55:00,76.2,71.0,29.84,WNW,293,1.0,-999.0,84,0.00,,,0.02,0,Wunderground v.1.15,2013-07-20 04:55:00,
2013-07-20 01:00:00,76.1,70.9,29.84,NW,315,2.0,-999.0,84,0.00,,,0.02,0,Wunderground v.1.15,2013-07-20 05:00:00,
2013-07-20 01:05:00,76.0,70.8,29.84,WSW,248,1.0,-999.0,84,0.00,,,0.02,0,Wunderground v.1.15,2013-07-20 05:05:00,
2013-07-20 01:10:00,76.0,70.8,29.84,West,270,1.0,-999.0,84,0.00,,,0.02,0,Wunderground v.1.15,2013-07-20 05:10:00,
2013-07-20 01:15:00,75.9,70.7,29.84,SE,135,1.0,-999.0,84,0.00,,,0.02,0,Wunderground v.1.15,2013-07-20 05:15:00,
2013-07-20 01:20:00,75.9,70.7,29.84,SE,135,2.0,-999.0,84,0.00,,,0.02,0,Wunderground v.1.15,2013-07-20 05:20:00,
2013-07-20 01:25:00,75.9,70.7,29.84,NW,315,1.0,-999.0,84,0.00,,,0.02,0,Wunderground v.1.15,2013-07-20 05:25:00,
2013-07-20 01:30:00,75.8,70.6,29.84,WNW,293,1.0,-999.0,84,0.00,,,0.02,0,Wunderground v.1.15,2013-07-20 05:30:00,
2013-07-20 01:35:00,75.8,70.6,29.85,WSW,248,0.0,-999.0,84,0.00,,,0.02,0,Wunderground v.1.15,2013-07-20 05:35:00,
2013-07-20 01:40:00,75.8,70.6,29.85,ESE,113,2.0,-999.0,84,0.00,,,0.02,0,Wunderground v.1.15,2013-07-20 05:40:00,
2013-07-20 01:45:00,75.7,70.9,29.84,SE,135,2.0,-999.0,85,0.00,,,0.02,0,Wunderground v.1.15,2013-07-20 05:45:00,
2013-07-20 01:50:00,75.6,70.8,29.85,SSW,203,0.0,-999.0,85,0.00,,,0.02,0,Wunderground v.1.15,2013-07-20 05:50:00,
2013-07-20 01:55:00,75.5,70.7,29.85,WNW,293,1.0,-999.0,85,0.00,,,0.02,0,Wunderground v.1.15,2013-07-20 05:55:00,
2013-07-20 02:00:00,75.4,70.6,29.86,WNW,293,1.0,-999.0,85,0.00,,,0.02,0,Wunderground v.1.15,2013-07-20 06:00:00,
2013-07-20 02:05:00,75.3,70.8,29.85,WNW,293,0.0,-999.0,86,0.00,,,0.02,0,Wunderground v.1.15,2013-07-20 06:05:00,
2013-07-20 02:10:00,75.2,70.7,29.85,WNW,293,0.0,-999.0,86,0.00,,,0.02,0,Wunderground v.1.15,2013-07-20 06:10:00,
2013-07-20 02:15:00,75.2,70.7,29.86,ESE,113,2.0,-999.0,86,0.00,,,0.02,0,Wunderground v.1.15,2013-07-20 06:15:00,
2013-07-20 02:20:00,75.2,70.7,29.86,SSE,158,3.0,-999.0,86,0.00,,,0.02,0,Wunderground v.1.15,2013-07-20 06:20:00,
2013-07-20 02:25:00,75.1,70.6,29.86,WNW,293,1.0,-999.0,86,0.00,,,0.02,0,Wunderground v.1.15,2013-07-20 06:25:00,
2013-07-20 02:30:00,75.2,70.7,29.86,WSW,248,0.0,-999.0,86,0.00,,,0.02,0,Wunderground v.1.15,2013-07-20 06:30:00,
2013-07-20 02:35:00,75.2,70.7,29.85,SSE,158,0.0,-999.0,86,0.00,,,0.02,0,Wunderground v.1.15,2013-07-20 06:35:00,
2013-07-20 02:40:00,75.3,70.8,29.85,SE,135,3.0,-999.0,86,0.00,,,0.02,0,Wunderground v.1.15,2013-07-20 06:40:00,
2013-07-20 02:45:00,75.3,70.8,29.85,SE,135,4.0,-999.0,86,0.00,,,0.02,0,Wunderground v.1.15,2013-07-20 06:45:00,
2013-07-20 02:50:00,75.3,70.8,29.86,West,270,1.0,-999.0,86,0.00,,,0.02,0,Wunderground v.1.15,2013-07-20 06:50:00,
2013-07-20 02:55:00,75.3,70.8,29.86,SSE,158,1.0,-999.0,86,0.00,,,0.02,0,Wunderground v.1.15,2013-07-20 06:55:00,
2013-07-20 03:00:00,75.3,70.8,29.86,NE,45,0.0,-999.0,86,0.00,,,0.02,0,Wunderground v.1.15,2013-07-20 07:00:00,
2013-07-20 03:05:00,75.3,70.8,29.86,NW,315,1.0,-999.0,86,0.00,,,0.02,0,Wunderground v.1.15,2013-07-20 07:05:00,
2013-07-20 03:10:00,75.1,70.6,29.87,SE,135,2.0,-999.0,86,0.00,,,0.02,0,Wunderground v.1.15,2013-07-20 07:10:00,
2013-07-20 03:15:00,75.1,70.6,29.86,SSE,158,1.0,-999.0,86,0.00,,,0.02,5,Wunderground v.1.15,2013-07-20 07:15:00,
2013-07-20 03:20:00,75.1,70.6,29.87,SE,135,4.0,-999.0,86,0.00,,,0.02,5,Wunderground v.1.15,2013-07-20 07:20:00,
2013-07-20 03:25:00,75.0,70.5,29.86,SE,135,2.0,-999.0,86,0.00,,,0.02,9,Wunderground v.1.15,2013-07-20 07:25:00,
2013-07-20 03:30:00,75.0,70.5,29.86,ESE,113,5.0,-999.0,86,0.00,,,0.02,9,Wunderground v.1.15,2013-07-20 07:30:00,
2013-07-20 03:35:00,75.0,70.5,29.86,WNW,293,1.0,-999.0,86,0.00,,,0.02,9,Wunderground v.1.15,2013-07-20 07:35:00,
2013-07-20 03:40:00,75.1,70.6,29.86,West,270,0.0,-999.0,86,0.00,,,0.02,7,Wunderground v.1.15,2013-07-20 07:40:00,
2013-07-20 03:45:00,75.0,70.5,29.86,WSW,248,1.0,-999.0,86,0.00,,,0.02,7,Wunderground v.1.15,2013-07-20 07:45:00,
2013-07-20 03:50:00,74.9,70.4,29.86,West,270,1.0,-999.0,86,0.00,,,0.02,7,Wunderground v.1.15,2013-07-20 07:50:00,
2013-07-20 03:55:00,74.9,70.8,29.87,West,270,1.0,-999.0,87,0.00,,,0.02,9,Wunderground v.1.15,2013-07-20 07:55:00,
2013-07-20 04:00:00,74.9,70.4,29.87,WSW,248,1.0,-999.0,86,0.00,,,0.02,9,Wunderground v.1.15,2013-07-20 08:00:00,
2013-07-20 04:05:00,75.0,70.9,29.87,WSW,248,1.0,-999.0,87,0.00,,,0.02,11,Wunderground v.1.15,2013-07-20 08:05:00,
2013-07-20 04:10:00,75.0,70.5,29.87,NW,315,0.0,-999.0,86,0.00,,,0.02,14,Wunderground v.1.15,2013-07-20 08:10:00,
2013-07-20 04:15:00,75.1,70.6,29.86,SE,135,3.0,-999.0,86,0.00,,,0.02,18,Wunderground v.1.15,2013-07-20 08:15:00,
2013-07-20 04:20:00,75.1,70.6,29.86,SSE,158,3.0,-999.0,86,0.00,,,0.02,21,Wunderground v.1.15,2013-07-20 08:20:00,
2013-07-20 04:25:00,75.1,70.6,29.86,ESE,113,1.0,-999.0,86,0.00,,,0.02,23,Wunderground v.1.15,2013-07-20 08:25:00,
2013-07-20 04:30:00,75.2,70.7,29.86,SW,225,1.0,-999.0,86,0.00,,,0.02,28,Wunderground v.1.15,2013-07-20 08:30:00,
2013-07-20 04:35:00,75.3,70.5,29.86,WNW,293,1.0,-999.0,85,0.00,,,0.02,46,Wunderground v.1.15,2013-07-20 08:35:00,
2013-07-20 04:40:00,75.5,70.7,29.86,NNW,338,2.0,-999.0,85,0.00,,,0.02,72,Wunderground v.1.15,2013-07-20 08:40:00,
2013-07-20 04:45:00,75.6,70.4,29.87,SE,135,5.0,-999.0,84,0.00,,,0.02,84,Wunderground v.1.15,2013-07-20 08:45:00,
2013-07-20 04:50:00,75.7,70.5,29.86,SE,135,2.0,-999.0,84,0.00,,,0.02,77,Wunderground v.1.15,2013-07-20 08:50:00,
2013-07-20 04:55:00,75.6,70.4,29.87,SE,135,5.0,-999.0,84,0.00,,,0.02,67,Wunderground v.1.15,2013-07-20 08:55:00,
2013-07-20 05:00:00,75.5,70.3,29.87,SE,135,3.0,-999.0,84,0.00,,,0.02,72,Wunderground v.1.15,2013-07-20 09:00:00,
2013-07-20 05:05:00,75.6,70.8,29.87,WNW,293,2.0,-999.0,85,0.00,,,0.02,84,Wunderground v.1.15,2013-07-20 09:05:00,
2013-07-20 05:10:00,75.7,70.9,29.88,NW,315,2.0,-999.0,85,0.00,,,0.02,70,Wunderground v.1.15,2013-07-20 09:10:00,
2013-07-20 05:15:00,75.8,71.0,29.87,SE,135,2.0,-999.0,85,0.00,,,0.02,69,Wunderground v.1.15,2013-07-20 09:15:00,
2013-07-20 05:20:00,75.9,71.1,29.87,ENE,68,1.0,-999.0,85,0.00,,,0.02,70,Wunderground v.1.15,2013-07-20 09:20:00,
2013-07-20 05:25:00,76.0,70.8,29.87,SE,135,5.0,-999.0,84,0.00,,,0.02,110,Wunderground v.1.15,2013-07-20 09:25:00,
2013-07-20 05:30:00,76.1,70.6,29.87,SE,135,4.0,-999.0,83,0.00,,,0.02,151,Wunderground v.1.15,2013-07-20 09:30:00,
2013-07-20 05:35:00,76.3,71.1,29.87,SE,135,2.0,-999.0,84,0.00,,,0.02,141,Wunderground v.1.15,2013-07-20 09:35:00,
2013-07-20 05:40:00,76.4,71.2,29.87,NW,315,2.0,-999.0,84,0.00,,,0.02,93,Wunderground v.1.15,2013-07-20 09:40:00,
2013-07-20 05:45:00,76.2,71.0,29.87,SE,135,1.0,-999.0,84,0.00,,,0.02,79,Wunderground v.1.15,2013-07-20 09:45:00,
2013-07-20 05:50:00,76.2,71.0,29.87,WNW,293,2.0,-999.0,84,0.00,,,0.02,84,Wunderground v.1.15,2013-07-20 09:50:00,
2013-07-20 05:55:00,76.1,71.6,29.87,ESE,113,1.0,-999.0,86,0.01,,,0.02,117,Wunderground v.1.15,2013-07-20 09:55:00,
2013-07-20 06:00:00,76.1,71.9,29.88,SSE,158,1.0,-999.0,87,0.01,,,0.02,159,Wunderground v.1.15,2013-07-20 10:00:00,
2013-07-20 06:05:00,76.1,71.6,29.88,SSW,203,2.0,-999.0,86,0.01,,,0.02,186,Wunderground v.1.15,2013-07-20 10:05:00,
2013-07-20 06:10:00,76.2,72.0,29.88,West,270,1.0,-999.0,87,0.01,,,0.02,276,Wunderground v.1.15,2013-07-20 10:10:00,
2013-07-20 06:15:00,76.4,71.9,29.88,ESE,113,2.0,-999.0,86,0.01,,,0.02,258,Wunderground v.1.15,2013-07-20 10:15:00,
2013-07-20 06:20:00,76.6,71.7,29.88,SSE,158,3.0,-999.0,85,0.01,,,0.02,271,Wunderground v.1.15,2013-07-20 10:20:00,
2013-07-20 06:25:00,76.9,71.7,29.87,SE,135,7.0,-999.0,84,0.01,,,0.02,348,Wunderground v.1.15,2013-07-20 10:25:00,
2013-07-20 06:30:00,77.1,71.2,29.87,SE,135,7.0,-999.0,82,0.01,,,0.02,279,Wunderground v.1.15,2013-07-20 10:30:00,
2013-07-20 06:35:00,77.3,71.4,29.87,ESE,113,4.0,-999.0,82,0.01,,,0.02,390,Wunderground v.1.15,2013-07-20 10:35:00,
2013-07-20 06:40:00,77.5,70.8,29.86,SE,135,7.0,-999.0,80,0.01,,,0.02,325,Wunderground v.1.15,2013-07-20 10:40:00,
2013-07-20 06:45:00,77.6,70.9,29.86,SE,135,5.0,-999.0,80,0.01,,,0.02,387,Wunderground v.1.15,2013-07-20 10:45:00,
2013-07-20 06:50:00,78.1,71.8,29.86,WSW,248,3.0,-999.0,81,0.01,,,0.02,323,Wunderground v.1.15,2013-07-20 10:50:00,
2013-07-20 06:55:00,78.5,71.8,29.85,ESE,113,3.0,-999.0,80,0.00,,,0.02,468,Wunderground v.1.15,2013-07-20 10:55:00,
2013-07-20 07:00:00,79.0,72.3,29.85,East,90,2.0,-999.0,80,0.00,,,0.02,526,Wunderground v.1.15,2013-07-20 11:00:00,
2013-07-20 07:05:00,79.2,71.7,29.84,West,270,3.0,-999.0,78,0.00,,,0.02,233,Wunderground v.1.15,2013-07-20 11:05:00,
2013-07-20 07:10:00,79.2,72.1,29.84,WSW,248,1.0,-999.0,79,0.00,,,0.02,197,Wunderground v.1.15,2013-07-20 11:10:00,
2013-07-20 07:15:00,79.1,71.3,29.84,ESE,113,6.0,-999.0,77,0.00,,,0.02,221,Wunderground v.1.15,2013-07-20 11:15:00,
2013-07-20 07:20:00,79.2,71.7,29.85,SE,135,2.0,-999.0,78,0.00,,,0.02,798,Wunderground v.1.15,2013-07-20 11:20:00,
2013-07-20 07:25:00,79.8,71.6,29.85,ESE,113,6.0,-999.0,76,0.00,,,0.02,325,Wunderground v.1.15,2013-07-20 11:25:00,
2013-07-20 07:30:00,79.8,70.8,29.85,SE,135,7.0,-999.0,74,0.00,,,0.02,334,Wunderground v.1.15,2013-07-20 11:30:00,
2013-07-20 07:35:00,79.5,70.9,29.85,SE,135,3.0,-999.0,75,0.00,,,0.02,366,Wunderground v.1.15,2013-07-20 11:35:00,
2013-07-20 07:40:00,79.8,71.2,29.85,SE,135,7.0,-999.0,75,0.00,,,0.02,835,Wunderground v.1.15,2013-07-20 11:40:00,
2013-07-20 07:45:00,80.2,71.2,29.84,ESE,113,5.0,-999.0,74,0.00,,,0.02,768,Wunderground v.1.15,2013-07-20 11:45:00,
2013-07-20 07:50:00,80.1,70.7,29.84,ESE,113,5.0,-999.0,73,0.00,,,0.02,346,Wunderground v.1.15,2013-07-20 11:50:00,
2013-07-20 07:55:00,80.3,71.3,29.83,SE,135,3.0,-999.0,74,0.00,,,0.02,413,Wunderground v.1.15,2013-07-20 11:55:00,
2013-07-20 08:00:00,81.1,72.0,29.82,SE,135,5.0,-999.0,74,0.00,,,0.02,420,Wunderground v.1.15,2013-07-20 12:00:00,
2013-07-20 08:05:00,81.7,71.8,29.82,SE,135,5.0,-999.0,72,0.00,,,0.02,846,Wunderground v.1.15,2013-07-20 12:05:00,
2013-07-20 08:10:00,82.1,71.8,29.82,SE,135,6.0,-999.0,71,0.00,,,0.02,598,Wunderground v.1.15,2013-07-20 12:10:00,
2013-07-20 08:15:00,82.4,71.6,29.82,SE,135,5.0,-999.0,70,0.00,,,0.02,860,Wunderground v.1.15,2013-07-20 12:15:00,
2013-07-20 08:20:00,82.4,71.6,29.82,ESE,113,6.0,-999.0,70,0.00,,,0.02,844,Wunderground v.1.15,2013-07-20 12:20:00,
2013-07-20 08:25:00,82.5,72.1,29.83,East,90,3.0,-999.0,71,0.00,,,0.02,877,Wunderground v.1.15,2013-07-20 12:25:00,
2013-07-20 08:30:00,83.0,71.8,29.83,WNW,293,5.0,-999.0,69,0.00,,,0.02,628,Wunderground v.1.15,2013-07-20 12:30:00,
2013-07-20 08:35:00,83.5,72.3,29.83,SE,135,5.0,-999.0,69,0.00,,,0.02,1030,Wunderground v.1.15,2013-07-20 12:35:00,
2013-07-20 08:40:00,83.2,72.0,29.83,ESE,113,8.0,-999.0,69,0.00,,,0.02,483,Wunderground v.1.15,2013-07-20 12:40:00,
2013-07-20 08:45:00,82.4,71.2,29.83,ESE,113,7.0,-999.0,69,0.00,,,0.02,357,Wunderground v.1.15,2013-07-20 12:45:00,
2013-07-20 08:50:00,82.0,71.7,29.83,SE,135,11.0,-999.0,71,0.00,,,0.02,722,Wunderground v.1.15,2013-07-20 12:50:00,
2013-07-20 08:55:00,82.2,71.4,29.83,SE,135,11.0,-999.0,70,0.00,,,0.02,956,Wunderground v.1.15,2013-07-20 12:55:00,
2013-07-20 09:00:00,82.0,71.7,29.83,SE,135,6.0,-999.0,71,0.00,,,0.02,443,Wunderground v.1.15,2013-07-20 13:00:00,
2013-07-20 09:05:00,82.4,72.5,29.83,ESE,113,6.0,-999.0,72,0.00,,,0.02,1076,Wunderground v.1.15,2013-07-20 13:05:00,
2013-07-20 09:10:00,83.4,71.7,29.83,NE,45,5.0,-999.0,68,0.00,,,0.02,949,Wunderground v.1.15,2013-07-20 13:10:00,
2013-07-20 09:15:00,84.0,72.7,29.84,SE,135,6.0,-999.0,69,0.00,,,0.02,1083,Wunderground v.1.15,2013-07-20 13:15:00,
2013-07-20 09:20:00,84.6,72.4,29.84,SE,135,5.0,-999.0,67,0.00,,,0.02,979,Wunderground v.1.15,2013-07-20 13:20:00,
2013-07-20 09:25:00,84.6,72.4,29.84,ESE,113,5.0,-999.0,67,0.00,,,0.02,842,Wunderground v.1.15,2013-07-20 13:25:00,
2013-07-20 09:30:00,84.7,72.1,29.84,SE,135,9.0,-999.0,66,0.00,,,0.02,754,Wunderground v.1.15,2013-07-20 13:30:00,
2013-07-20 09:35:00,84.6,72.0,29.83,ESE,113,5.0,-999.0,66,0.00,,,0.02,849,Wunderground v.1.15,2013-07-20 13:35:00,
2013-07-20 09:40:00,84.5,72.3,29.83,SE,135,7.0,-999.0,67,0.00,,,0.02,817,Wunderground v.1.15,2013-07-20 13:40:00,
2013-07-20 09:45:00,84.7,72.1,29.83,East,90,5.0,-999.0,66,0.00,,,0.02,689,Wunderground v.1.15,2013-07-20 13:45:00,
2013-07-20 09:50:00,84.9,71.8,29.83,SE,135,6.0,-999.0,65,0.00,,,0.02,895,Wunderground v.1.15,2013-07-20 13:50:00,
2013-07-20 09:55:00,85.1,72.5,29.83,SE,135,7.0,-999.0,66,0.00,,,0.02,887,Wunderground v.1.15,2013-07-20 13:55:00,
2013-07-20 10:00:00,85.5,71.9,29.83,SE,135,10.0,-999.0,64,0.00,,,0.02,886,Wunderground v.1.15,2013-07-20 14:00:00,
2013-07-20 10:05:00,85.3,72.2,29.83,ESE,113,8.0,-999.0,65,0.00,,,0.02,909,Wunderground v.1.15,2013-07-20 14:05:00,
2013-07-20 10:10:00,85.3,72.2,29.83,ESE,113,7.0,-999.0,65,0.00,,,0.02,951,Wunderground v.1.15,2013-07-20 14:10:00,
2013-07-20 10:15:00,85.7,72.1,29.83,SE,135,8.0,-999.0,64,0.00,,,0.02,933,Wunderground v.1.15,2013-07-20 14:15:00,
2013-07-20 10:20:00,86.0,72.4,29.82,East,90,4.0,-999.0,64,0.00,,,0.02,990,Wunderground v.1.15,2013-07-20 14:20:00,
2013-07-20 10:25:00,85.9,71.8,29.82,ESE,113,6.0,-999.0,63,0.00,,,0.02,947,Wunderground v.1.15,2013-07-20 14:25:00,
2013-07-20 10:30:00,86.1,71.6,29.82,West,270,4.0,-999.0,62,0.00,,,0.02,316,Wunderground v.1.15,2013-07-20 14:30:00,
2013-07-20 10:35:00,86.6,72.5,29.82,SE,135,5.0,-999.0,63,0.00,,,0.02,1039,Wunderground v.1.15,2013-07-20 14:35:00,
2013-07-20 10:40:00,86.9,71.8,29.82,SE,135,8.0,-999.0,61,0.00,,,0.02,504,Wunderground v.1.15,2013-07-20 14:40:00,
2013-07-20 10:45:00,86.3,71.7,29.82,ESE,113,7.0,-999.0,62,0.00,,,0.02,287,Wunderground v.1.15,2013-07-20 14:45:00,
2013-07-20 10:50:00,86.3,71.3,29.81,SE,135,10.0,-999.0,61,0.00,,,0.02,953,Wunderground v.1.15,2013-07-20 14:50:00,
2013-07-20 10:55:00,86.3,71.7,29.82,East,90,2.0,-999.0,62,0.00,,,0.02,846,Wunderground v.1.15,2013-07-20 14:55:00,
2013-07-20 11:00:00,86.7,71.2,29.82,SE,135,12.0,-999.0,60,0.00,,,0.02,788,Wunderground v.1.15,2013-07-20 15:00:00,
2013-07-20 11:05:00,87.1,71.0,29.82,SE,135,9.0,-999.0,59,0.00,,,0.02,352,Wunderground v.1.15,2013-07-20 15:05:00,
2013-07-20 11:10:00,87.1,71.0,29.81,SE,135,11.0,-999.0,59,0.00,,,0.02,935,Wunderground v.1.15,2013-07-20 15:10:00,
2013-07-20 11:15:00,87.1,71.0,29.81,ESE,113,9.0,-999.0,59,0.00,,,0.02,954,Wunderground v.1.15,2013-07-20 15:15:00,
2013-07-20 11:20:00,87.3,70.7,29.82,ESE,113,7.0,-999.0,58,0.00,,,0.02,984,Wunderground v.1.15,2013-07-20 15:20:00,
2013-07-20 11:25:00,87.9,71.3,29.82,South,180,4.0,-999.0,58,0.00,,,0.02,478,Wunderground v.1.15,2013-07-20 15:25:00,
2013-07-20 11:30:00,88.0,71.4,29.82,WNW,293,4.0,-999.0,58,0.00,,,0.02,520,Wunderground v.1.15,2013-07-20 15:30:00,
2013-07-20 11:35:00,86.0,69.0,29.85,WNW,293,11.0,-999.0,57,0.00,,,0.02,81,Wunderground v.1.15,2013-07-20 15:35:00,
2013-07-20 11:40:00,79.4,68.3,29.84,WNW,293,6.0,-999.0,69,0.00,,,0.02,56,Wunderground v.1.15,2013-07-20 15:40:00,
2013-07-20 11:45:00,76.3,67.4,29.85,WNW,293,8.0,-999.0,74,0.00,,,0.02,84,Wunderground v.1.15,2013-07-20 15:45:00,
2013-07-20 11:50:00,75.4,67.7,29.84,NW,315,5.0,-999.0,77,0.00,,,0.02,56,Wunderground v.1.15,2013-07-20 15:50:00,
2013-07-20 11:55:00,75.2,67.5,29.83,NW,315,7.0,-999.0,77,0.00,,,0.02,114,Wunderground v.1.15,2013-07-20 15:55:00,
2013-07-20 12:00:00,74.9,67.6,29.83,WNW,293,5.0,-999.0,78,0.00,,,0.02,178,Wunderground v.1.15,2013-07-20 16:00:00,
2013-07-20 12:05:00,75.8,68.1,29.83,WNW,293,3.0,-999.0,77,0.00,,,0.02,265,Wunderground v.1.15,2013-07-20 16:05:00,
2013-07-20 12:10:00,77.3,68.4,29.83,NNW,338,1.0,-999.0,74,0.00,,,0.02,221,Wunderground v.1.15,2013-07-20 16:10:00,
2013-07-20 12:15:00,77.7,68.4,29.83,South,180,3.0,-999.0,73,0.00,,,0.02,110,Wunderground v.1.15,2013-07-20 16:15:00,
2013-07-20 12:20:00,77.3,68.4,29.83,South,180,4.0,-999.0,74,0.00,,,0.02,178,Wunderground v.1.15,2013-07-20 16:20:00,
2013-07-20 12:25:00,77.3,68.4,29.83,SE,135,0.0,-999.0,74,0.00,,,0.02,817,Wunderground v.1.15,2013-07-20 16:25:00,
2013-07-20 12:30:00,78.0,68.6,29.82,NNW,338,1.0,-999.0,73,0.00,,,0.02,824,Wunderground v.1.15,2013-07-20 16:30:00,
2013-07-20 12:35:00,78.8,69.0,29.83,N/A,-737280,0.0,-999.0,72,0.00,,,0.02,146,Wunderground v.1.15,2013-07-20 16:35:00,
2013-07-20 12:40:00,80.1,69.0,29.82,North,0,3.0,-999.0,69,0.00,,,0.02,798,Wunderground v.1.15,2013-07-20 16:40:00,
2013-07-20 12:45:00,81.4,69.4,29.82,SE,135,2.0,-999.0,67,0.00,,,0.02,663,Wunderground v.1.15,2013-07-20 16:45:00,
2013-07-20 12:50:00,82.1,69.6,29.82,SE,135,2.0,-999.0,66,0.00,,,0.02,794,Wunderground v.1.15,2013-07-20 16:50:00,
2013-07-20 12:55:00,83.0,70.0,29.82,NNE,23,2.0,-999.0,65,0.00,,,0.02,728,Wunderground v.1.15,2013-07-20 16:55:00,
2013-07-20 13:00:00,84.2,69.8,29.82,NE,45,2.0,-999.0,62,0.00,,,0.02,691,Wunderground v.1.15,2013-07-20 17:00:00,
2013-07-20 13:05:00,85.1,71.1,29.82,NW,315,4.0,-999.0,63,0.00,,,0.02,635,Wunderground v.1.15,2013-07-20 17:05:00,
2013-07-20 13:10:00,85.7,70.7,29.81,East,90,1.0,-999.0,61,0.00,,,0.02,171,Wunderground v.1.15,2013-07-20 17:10:00,
2013-07-20 13:15:00,85.9,70.9,29.82,West,270,1.0,-999.0,61,0.00,,,0.02,132,Wunderground v.1.15,2013-07-20 17:15:00,
2013-07-20 13:20:00,85.9,71.4,29.81,North,0,3.0,-999.0,62,0.00,,,0.02,135,Wunderground v.1.15,2013-07-20 17:20:00,
2013-07-20 13:25:00,85.6,72.9,29.81,NNE,23,0.0,-999.0,66,0.01,,,0.02,138,Wunderground v.1.15,2013-07-20 17:25:00,
2013-07-20 13:30:00,84.8,71.7,29.81,South,180,1.0,-999.0,65,0.01,,,0.02,167,Wunderground v.1.15,2013-07-20 17:30:00,
2013-07-20 13:35:00,83.9,72.2,29.81,South,180,2.0,-999.0,68,0.01,,,0.02,156,Wunderground v.1.15,2013-07-20 17:35:00,
2013-07-20 13:40:00,83.0,70.0,29.82,SE,135,6.0,-999.0,65,0.01,,,0.02,156,Wunderground v.1.15,2013-07-20 17:40:00,
2013-07-20 13:45:00,81.5,69.0,29.81,SE,135,4.0,-999.0,66,0.01,,,0.02,144,Wunderground v.1.15,2013-07-20 17:45:00,
2013-07-20 13:50:00,80.7,69.6,29.82,WNW,293,1.0,-999.0,69,0.01,,,0.02,243,Wunderground v.1.15,2013-07-20 17:50:00,
2013-07-20 13:55:00,80.9,69.3,29.83,SW,225,2.0,-999.0,68,0.01,,,0.02,197,Wunderground v.1.15,2013-07-20 17:55:00,
2013-07-20 14:00:00,80.1,69.0,29.83,SE,135,4.0,-999.0,69,0.01,,,0.02,190,Wunderground v.1.15,2013-07-20 18:00:00,
2013-07-20 14:05:00,79.6,68.5,29.82,South,180,2.0,-999.0,69,0.01,,,0.02,227,Wunderground v.1.15,2013-07-20 18:05:00,
2013-07-20 14:10:00,79.7,69.9,29.82,NNW,338,2.0,-999.0,72,0.01,,,0.02,178,Wunderground v.1.15,2013-07-20 18:10:00,
2013-07-20 14:15:00,79.8,70.0,29.82,NW,315,1.0,-999.0,72,0.01,,,0.02,174,Wunderground v.1.15,2013-07-20 18:15:00,
2013-07-20 14:20:00,80.2,69.1,29.82,NW,315,1.0,-999.0,69,0.01,,,0.02,137,Wunderground v.1.15,2013-07-20 18:20:00,
2013-07-20 14:25:00,80.5,69.0,29.82,South,180,1.0,-999.0,68,0.00,,,0.02,90,Wunderground v.1.15,2013-07-20 18:25:00,
2013-07-20 14:30:00,80.6,69.1,29.82,SSW,203,2.0,-999.0,68,0.00,,,0.02,125,Wunderground v.1.15,2013-07-20 18:30:00,
2013-07-20 14:35:00,80.6,69.1,29.82,SSW,203,3.0,-999.0,68,0.00,,,0.02,148,Wunderground v.1.15,2013-07-20 18:35:00,
2013-07-20 14:40:00,80.7,69.2,29.82,SSW,203,1.0,-999.0,68,0.00,,,0.02,188,Wunderground v.1.15,2013-07-20 18:40:00,
2013-07-20 14:45:00,80.9,69.8,29.82,SW,225,0.0,-999.0,69,0.00,,,0.02,527,Wunderground v.1.15,2013-07-20 18:45:00,
2013-07-20 14:50:00,81.5,69.9,29.81,N/A,-737280,0.0,-999.0,68,0.00,,,0.02,443,Wunderground v.1.15,2013-07-20 18:50:00,
2013-07-20 14:55:00,82.2,69.7,29.81,NNE,23,1.0,-999.0,66,0.00,,,0.02,420,Wunderground v.1.15,2013-07-20 18:55:00,
2013-07-20 15:00:00,82.5,70.0,29.82,South,180,2.0,-999.0,66,0.00,,,0.02,137,Wunderground v.1.15,2013-07-20 19:00:00,
2013-07-20 15:05:00,82.5,70.4,29.82,SSE,158,1.0,-999.0,67,0.00,,,0.02,84,Wunderground v.1.15,2013-07-20 19:05:00,
2013-07-20 15:10:00,82.3,72.8,29.82,SE,135,2.0,-999.0,73,0.00,,,0.02,72,Wunderground v.1.15,2013-07-20 19:10:00,
2013-07-20 15:15:00,81.8,72.3,29.81,N/A,-737280,0.0,-999.0,73,0.00,,,0.02,105,Wunderground v.1.15,2013-07-20 19:15:00,
2013-07-20 15:20:00,81.7,72.6,29.81,SSW,203,1.0,-999.0,74,0.00,,,0.02,120,Wunderground v.1.15,2013-07-20 19:20:00,
2013-07-20 15:25:00,81.6,72.5,29.81,South,180,1.0,-999.0,74,0.00,,,0.02,105,Wunderground v.1.15,2013-07-20 19:25:00,
2013-07-20 15:30:00,81.8,73.1,29.81,SE,135,2.0,-999.0,75,0.00,,,0.02,199,Wunderground v.1.15,2013-07-20 19:30:00,
2013-07-20 15:35:00,81.9,73.2,29.81,SSE,158,0.0,-999.0,75,0.00,,,0.02,200,Wunderground v.1.15,2013-07-20 19:35:00,
2013-07-20 15:40:00,82.4,73.3,29.81,West,270,1.0,-999.0,74,0.00,,,0.02,156,Wunderground v.1.15,2013-07-20 19:40:00,
2013-07-20 15:45:00,82.8,73.3,29.81,SE,135,1.0,-999.0,73,0.00,,,0.02,111,Wunderground v.1.15,2013-07-20 19:45:00,
2013-07-20 15:50:00,82.8,73.3,29.82,SE,135,1.0,-999.0,73,0.00,,,0.02,69,Wunderground v.1.15,2013-07-20 19:50:00,
2013-07-20 15:55:00,82.3,72.8,29.82,SE,135,4.0,-999.0,73,0.00,,,0.02,81,Wunderground v.1.15,2013-07-20 19:55:00,
2013-07-20 16:00:00,81.7,73.0,29.82,SE,135,2.0,-999.0,75,0.00,,,0.02,127,Wunderground v.1.15,2013-07-20 20:00:00,
2013-07-20 16:05:00,81.6,72.5,29.82,SE,135,2.0,-999.0,74,0.00,,,0.02,127,Wunderground v.1.15,2013-07-20 20:05:00,
2013-07-20 16:10:00,81.6,72.5,29.82,SSE,158,1.0,-999.0,74,0.00,,,0.02,105,Wunderground v.1.15,2013-07-20 20:10:00,
2013-07-20 16:15:00,81.5,72.8,29.82,ESE,113,1.0,-999.0,75,0.00,,,0.02,93,Wunderground v.1.15,2013-07-20 20:15:00,
2013-07-20 16:20:00,81.5,72.0,29.82,SE,135,1.0,-999.0,73,0.00,,,0.02,88,Wunderground v.1.15,2013-07-20 20:20:00,
2013-07-20 16:25:00,81.6,72.5,29.83,WNW,293,0.0,-999.0,74,0.00,,,0.02,86,Wunderground v.1.15,2013-07-20 20:25:00,
2013-07-20 16:30:00,81.7,72.6,29.83,WNW,293,0.0,-999.0,74,0.00,,,0.02,76,Wunderground v.1.15,2013-07-20 20:30:00,
2013-07-20 16:35:00,81.8,72.7,29.83,NW,315,1.0,-999.0,74,0.00,,,0.02,72,Wunderground v.1.15,2013-07-20 20:35:00,
2013-07-20 16:40:00,81.8,73.1,29.83,NW,315,1.0,-999.0,75,0.00,,,0.02,62,Wunderground v.1.15,2013-07-20 20:40:00,
2013-07-20 16:45:00,81.8,73.1,29.83,NW,315,1.0,-999.0,75,0.00,,,0.02,47,Wunderground v.1.15,2013-07-20 20:45:00,
2013-07-20 16:50:00,81.8,72.7,29.83,NW,315,1.0,-999.0,74,0.00,,,0.02,53,Wunderground v.1.15,2013-07-20 20:50:00,
2013-07-20 16:55:00,81.8,73.1,29.83,NW,315,1.0,-999.0,75,0.00,,,0.02,44,Wunderground v.1.15,2013-07-20 20:55:00,
2013-07-20 17:00:00,81.8,73.1,29.83,West,270,0.0,-999.0,75,0.00,,,0.02,37,Wunderground v.1.15,2013-07-20 21:00:00,
2013-07-20 17:05:00,81.7,73.8,29.83,SE,135,1.0,-999.0,77,0.00,,,0.02,35,Wunderground v.1.15,2013-07-20 21:05:00,
2013-07-20 17:10:00,81.4,73.5,29.83,SE,135,1.0,-999.0,77,0.00,,,0.02,37,Wunderground v.1.15,2013-07-20 21:10:00,
2013-07-20 17:15:00,81.1,73.6,29.83,SSE,158,2.0,-999.0,78,0.00,,,0.02,33,Wunderground v.1.15,2013-07-20 21:15:00,
2013-07-20 17:20:00,80.9,73.4,29.83,SE,135,3.0,-999.0,78,0.00,,,0.02,20,Wunderground v.1.15,2013-07-20 21:20:00,
2013-07-20 17:25:00,80.7,72.8,29.83,SE,135,3.0,-999.0,77,0.00,,,0.02,12,Wunderground v.1.15,2013-07-20 21:25:00,
2013-07-20 17:30:00,80.6,72.7,29.83,SSE,158,0.0,-999.0,77,0.00,,,0.02,7,Wunderground v.1.15,2013-07-20 21:30:00,
2013-07-20 17:35:00,80.5,72.6,29.84,SE,135,2.0,-999.0,77,0.00,,,0.02,0,Wunderground v.1.15,2013-07-20 21:35:00,
2013-07-20 17:40:00,80.4,72.5,29.84,SE,135,2.0,-999.0,77,0.00,,,0.02,0,Wunderground v.1.15,2013-07-20 21:40:00,
2013-07-20 17:45:00,80.2,72.3,29.84,SE,135,2.0,-999.0,77,0.00,,,0.02,0,Wunderground v.1.15,2013-07-20 21:45:00,
2013-07-20 17:50:00,80.0,72.1,29.85,SE,135,2.0,-999.0,77,0.00,,,0.02,5,Wunderground v.1.15,2013-07-20 21:50:00,
2013-07-20 17:55:00,80.0,71.8,29.85,East,90,1.0,-999.0,76,0.00,,,0.02,5,Wunderground v.1.15,2013-07-20 21:55:00,
2013-07-20 18:00:00,79.9,71.7,29.85,WNW,293,1.0,-999.0,76,0.00,,,0.02,0,Wunderground v.1.15,2013-07-20 22:00:00,
2013-07-20 18:05:00,79.9,72.0,29.86,West,270,1.0,-999.0,77,0.00,,,0.02,0,Wunderground v.1.15,2013-07-20 22:05:00,
2013-07-20 18:10:00,79.8,71.9,29.86,WSW,248,0.0,-999.0,77,0.00,,,0.02,0,Wunderground v.1.15,2013-07-20 22:10:00,
2013-07-20 18:15:00,79.7,71.8,29.86,WNW,293,1.0,-999.0,77,0.00,,,0.02,0,Wunderground v.1.15,2013-07-20 22:15:00,
2013-07-20 18:20:00,79.6,71.8,29.86,NNE,23,1.0,-999.0,77,0.00,,,0.02,0,Wunderground v.1.15,2013-07-20 22:20:00,
2013-07-20 18:25:00,79.6,71.8,29.86,NW,315,1.0,-999.0,77,0.00,,,0.02,0,Wunderground v.1.15,2013-07-20 22:25:00,
2013-07-20 18:30:00,79.5,71.3,29.86,WNW,293,2.0,-999.0,76,0.00,,,0.02,0,Wunderground v.1.15,2013-07-20 22:30:00,
2013-07-20 18:35:00,79.5,70.5,29.86,NW,315,2.0,-999.0,74,0.00,,,0.02,0,Wunderground v.1.15,2013-07-20 22:35:00,
2013-07-20 18:40:00,79.5,70.1,29.87,NW,315,1.0,-999.0,73,0.00,,,0.02,0,Wunderground v.1.15,2013-07-20 22:40:00,
2013-07-20 18:45:00,79.7,69.5,29.86,NNW,338,1.0,-999.0,71,0.00,,,0.02,0,Wunderground v.1.15,2013-07-20 22:45:00,
2013-07-20 18:50:00,79.8,69.1,29.87,WNW,293,2.0,-999.0,70,0.00,,,0.02,0,Wunderground v.1.15,2013-07-20 22:50:00,
2013-07-20 18:55:00,79.9,68.8,29.87,WNW,293,1.0,-999.0,69,0.00,,,0.02,0,Wunderground v.1.15,2013-07-20 22:55:00,
2013-07-20 19:00:00,79.9,68.8,29.87,West,270,1.0,-999.0,69,0.00,,,0.02,0,Wunderground v.1.15,2013-07-20 23:00:00,
2013-07-20 19:05:00,79.9,68.8,29.87,NW,315,1.0,-999.0,69,0.00,,,0.02,0,Wunderground v.1.15,2013-07-20 23:05:00,
2013-07-20 19:10:00,79.9,68.4,29.87,WNW,293,2.0,-999.0,68,0.00,,,0.02,0,Wunderground v.1.15,2013-07-20 23:10:00,
2013-07-20 19:15:00,80.0,68.5,29.87,WNW,293,1.0,-999.0,68,0.00,,,0.02,0,Wunderground v.1.15,2013-07-20 23:15:00,
2013-07-20 19:20:00,80.0,68.5,29.87,WNW,293,2.0,-999.0,68,0.00,,,0.02,0,Wunderground v.1.15,2013-07-20 23:20:00,
2013-07-20 19:25:00,80.1,68.6,29.87,NW,315,1.0,-999.0,68,0.00,,,0.02,0,Wunderground v.1.15,2013-07-20 23:25:00,
2013-07-20 19:30:00,80.1,68.6,29.87,NW,315,2.0,-999.0,68,0.00,,,0.02,0,Wunderground v.1.15,2013-07-20 23:30:00,
2013-07-20 19:35:00,80.0,68.5,29.87,WNW,293,1.0,-999.0,68,0.00,,,0.02,0,Wunderground v.1.15,2013-07-20 23:35:00,
2013-07-20 19:40:00,80.0,68.9,29.88,WNW,293,1.0,-999.0,69,0.00,,,0.02,0,Wunderground v.1.15,2013-07-20 23:40:00,
2013-07-20 19:45:00,79.8,68.7,29.88,WNW,293,2.0,-999.0,69,0.00,,,0.02,0,Wunderground v.1.15,2013-07-20 23:45:00,
2013-07-20 19:50:00,79.6,68.5,29.89,NW,315,1.0,-999.0,69,0.00,,,0.02,0,Wunderground v.1.15,2013-07-20 23:50:00,
2013-07-20 19:55:00,79.5,68.4,29.89,WNW,293,1.0,-999.0,69,0.00,,,0.02,0,Wunderground v.1.15,2013-07-20 23:55:00,
2013-07-20 20:00:00,79.4,68.8,29.89,WNW,293,1.0,-999.0,70,0.00,,,0.02,0,Wunderground v.1.15,2013-07-21 00:00:00,
2013-07-20 20:05:00,79.3,68.7,29.89,West,270,2.0,-999.0,70,0.00,,,0.02,0,Wunderground v.1.15,2013-07-21 00:05:00,
2013-07-20 20:10:00,79.3,68.7,29.89,N/A,-737280,0.0,-999.0,70,0.00,,,0.02,0,Wunderground v.1.15,2013-07-21 00:10:00,
2013-07-20 20:15:00,79.0,70.4,29.89,SE,135,4.0,-999.0,75,0.00,,,0.02,0,Wunderground v.1.15,2013-07-21 00:15:00,
2013-07-20 20:20:00,78.3,70.5,29.89,SE,135,2.0,-999.0,77,0.00,,,0.02,0,Wunderground v.1.15,2013-07-21 00:20:00,
2013-07-20 20:25:00,77.9,70.1,29.89,SE,135,0.0,-999.0,77,0.00,,,0.02,0,Wunderground v.1.15,2013-07-21 00:25:00,
2013-07-20 20:30:00,77.5,70.1,29.89,WNW,293,1.0,-999.0,78,0.00,,,0.02,0,Wunderground v.1.15,2013-07-21 00:30:00,
2013-07-20 20:35:00,77.4,70.4,29.90,WNW,293,0.0,-999.0,79,0.00,,,0.02,0,Wunderground v.1.15,2013-07-21 00:35:00,
2013-07-20 20:40:00,77.4,70.4,29.90,WNW,293,0.0,-999.0,79,0.00,,,0.02,0,Wunderground v.1.15,2013-07-21 00:40:00,
2013-07-20 20:45:00,77.3,70.3,29.90,WNW,293,1.0,-999.0,79,0.00,,,0.02,0,Wunderground v.1.15,2013-07-21 00:45:00,
2013-07-20 20:50:00,77.3,70.3,29.90,N/A,-737280,0.0,-999.0,79,0.00,,,0.02,0,Wunderground v.1.15,2013-07-21 00:50:00,
2013-07-20 20:55:00,77.2,70.2,29.90,WNW,293,1.0,-999.0,79,0.00,,,0.02,0,Wunderground v.1.15,2013-07-21 00:55:00,
2013-07-20 21:00:00,77.1,70.5,29.90,SSE,158,1.0,-999.0,80,0.00,,,0.02,0,Wunderground v.1.15,2013-07-21 01:00:00,
2013-07-20 21:05:00,76.9,70.3,29.90,SSE,158,1.0,-999.0,80,0.00,,,0.02,0,Wunderground v.1.15,2013-07-21 01:05:00,
2013-07-20 21:10:00,76.8,70.2,29.90,N/A,-737280,0.0,-999.0,80,0.00,,,0.02,0,Wunderground v.1.15,2013-07-21 01:10:00,
2013-07-20 21:15:00,76.8,70.5,29.90,West,270,1.0,-999.0,81,0.00,,,0.02,0,Wunderground v.1.15,2013-07-21 01:15:00,
2013-07-20 21:20:00,76.8,70.5,29.90,West,270,0.0,-999.0,81,0.00,,,0.02,0,Wunderground v.1.15,2013-07-21 01:20:00,
2013-07-20 21:25:00,76.7,70.4,29.90,West,270,1.0,-999.0,81,0.00,,,0.02,0,Wunderground v.1.15,2013-07-21 01:25:00,
2013-07-20 21:30:00,76.7,70.1,29.90,WNW,293,2.0,-999.0,80,0.00,,,0.02,0,Wunderground v.1.15,2013-07-21 01:30:00,
2013-07-20 21:35:00,76.8,69.0,29.90,WNW,293,2.0,-999.0,77,0.00,,,0.02,0,Wunderground v.1.15,2013-07-21 01:35:00,
2013-07-20 21:40:00,77.0,68.5,29.90,West,270,2.0,-999.0,75,0.00,,,0.02,0,Wunderground v.1.15,2013-07-21 01:40:00,
2013-07-20 21:45:00,77.3,68.4,29.90,WNW,293,1.0,-999.0,74,0.00,,,0.02,0,Wunderground v.1.15,2013-07-21 01:45:00,
2013-07-20 21:50:00,77.4,68.1,29.90,North,0,1.0,-999.0,73,0.00,,,0.02,0,Wunderground v.1.15,2013-07-21 01:50:00,
2013-07-20 21:55:00,77.4,69.2,29.91,SE,135,2.0,-999.0,76,0.00,,,0.02,0,Wunderground v.1.15,2013-07-21 01:55:00,
2013-07-20 22:00:00,77.0,70.0,29.91,WNW,293,2.0,-999.0,79,0.00,,,0.02,0,Wunderground v.1.15,2013-07-21 02:00:00,
2013-07-20 22:05:00,76.5,69.9,29.91,NW,315,3.0,-999.0,80,0.00,,,0.02,0,Wunderground v.1.15,2013-07-21 02:05:00,
2013-07-20 22:10:00,76.1,69.1,29.91,NNW,338,0.0,-999.0,79,0.00,,,0.02,0,Wunderground v.1.15,2013-07-21 02:10:00,
2013-07-20 22:15:00,76.0,68.3,29.91,North,0,2.0,-999.0,77,0.00,,,0.02,0,Wunderground v.1.15,2013-07-21 02:15:00,
2013-07-20 22:20:00,76.2,68.5,29.91,WNW,293,0.0,-999.0,77,0.00,,,0.02,0,Wunderground v.1.15,2013-07-21 02:20:00,
2013-07-20 22:25:00,76.2,68.5,29.91,WNW,293,1.0,-999.0,77,0.00,,,0.02,0,Wunderground v.1.15,2013-07-21 02:25:00,
2013-07-20 22:30:00,76.2,68.5,29.92,WNW,293,0.0,-999.0,77,0.00,,,0.02,0,Wunderground v.1.15,2013-07-21 02:30:00,
2013-07-20 22:35:00,76.2,68.5,29.91,N/A,-737280,0.0,-999.0,77,0.00,,,0.02,0,Wunderground v.1.15,2013-07-21 02:35:00,
2013-07-20 22:40:00,76.2,68.8,29.92,NW,315,1.0,-999.0,78,0.00,,,0.02,0,Wunderground v.1.15,2013-07-21 02:40:00,
2013-07-20 22:45:00,76.0,68.6,29.91,WSW,248,0.0,-999.0,78,0.00,,,0.02,0,Wunderground v.1.15,2013-07-21 02:45:00,
2013-07-20 22:50:00,75.8,68.4,29.91,WSW,248,1.0,-999.0,78,0.00,,,0.02,0,Wunderground v.1.15,2013-07-21 02:50:00,
2013-07-20 22:55:00,75.7,68.7,29.91,NNW,338,1.0,-999.0,79,0.00,,,0.02,0,Wunderground v.1.15,2013-07-21 02:55:00,
2013-07-20 23:00:00,75.5,68.5,29.92,NNW,338,0.0,-999.0,79,0.00,,,0.02,0,Wunderground v.1.15,2013-07-21 03:00:00,
2013-07-20 23:05:00,75.2,68.6,29.92,NNW,338,1.0,-999.0,80,0.00,,,0.02,0,Wunderground v.1.15,2013-07-21 03:05:00,
2013-07-20 23:10:00,75.2,68.6,29.92,NNW,338,1.0,-999.0,80,0.00,,,0.02,0,Wunderground v.1.15,2013-07-21 03:10:00,
2013-07-20 23:15:00,75.0,68.8,29.91,NNW,338,1.0,-999.0,81,0.00,,,0.02,0,Wunderground v.1.15,2013-07-21 03:15:00,
2013-07-20 23:20:00,74.9,68.7,29.91,NNW,338,1.0,-999.0,81,0.00,,,0.02,0,Wunderground v.1.15,2013-07-21 03:20:00,
2013-07-20 23:25:00,74.7,68.8,29.91,NNW,338,1.0,-999.0,82,0.00,,,0.02,0,Wunderground v.1.15,2013-07-21 03:25:00,
2013-07-20 23:30:00,74.6,68.7,29.91,N/A,-737280,0.0,-999.0,82,0.00,,,0.02,0,Wunderground v.1.15,2013-07-21 03:30:00,
2013-07-20 23:35:00,74.4,68.5,29.91,SW,225,1.0,-999.0,82,0.00,,,0.02,0,Wunderground v.1.15,2013-07-21 03:35:00,
2013-07-20 23:40:00,74.2,68.7,29.91,SSW,203,1.0,-999.0,83,0.00,,,0.02,0,Wunderground v.1.15,2013-07-21 03:40:00,
2013-07-20 23:45:00,74.1,68.6,29.92,N/A,-737280,0.0,-999.0,83,0.00,,,0.02,0,Wunderground v.1.15,2013-07-21 03:45:00,
2013-07-20 23:50:00,74.0,68.9,29.91,NNW,338,0.0,-999.0,84,0.00,,,0.02,0,Wunderground v.1.15,2013-07-21 03:50:00,
2013-07-20 23:55:00,73.9,68.8,29.92,N/A,-737280,0.0,-999.0,84,0.00,,,0.02,0,Wunderground v.1.15,2013-07-21 03:55:00,